Time;durP1;ratioP1;P1;durP2;ratioP2;P2;SDS_P1;SDS_P2;PMS_P1;PMS_P2;Temp;Humidity;BMP_temperature;BMP_pressure;BME280_temperature;BME280_humidity;BME280_pressure;Samples;Min_cycle;Max_cycle;Signal;HPM_P1;HPM_P2
2024/01/02 00:00:21;;;;;;;12.65;2.97;;;;;;;6.01;100.00;100030.66;5152872;27;20130;-77
2024/01/02 00:02:48;;;;;;;10.65;2.40;;;;;;;6.00;100.00;100011.41;5138677;27;20047;-77
2024/01/02 00:05:15;;;;;;;8.10;2.05;;;;;;;6.00;100.00;99995.56;5156818;27;20069;-77
2024/01/02 00:07:41;;;;;;;6.95;2.13;;;;;;;6.01;100.00;99988.38;5137596;27;20100;-77
2024/01/02 00:10:08;;;;;;;5.13;1.90;;;;;;;6.01;100.00;99989.09;5158043;27;20431;-77
2024/01/02 00:12:35;;;;;;;5.07;1.90;;;;;;;6.02;100.00;99982.66;5157201;27;20043;-77
2024/01/02 00:15:02;;;;;;;10.13;2.30;;;;;;;6.02;100.00;99974.72;5157751;27;20040;-77
2024/01/02 00:17:28;;;;;;;6.00;1.80;;;;;;;6.03;100.00;99959.63;5157555;27;20138;-77
2024/01/02 00:19:55;;;;;;;6.65;1.98;;;;;;;6.04;100.00;99945.25;5157468;27;20561;-77
2024/01/02 00:22:22;;;;;;;5.63;2.10;;;;;;;6.05;100.00;99946.72;5137534;27;20043;-77
2024/01/02 00:24:49;;;;;;;7.20;1.98;;;;;;;6.05;100.00;99938.78;5138175;27;20072;-77
2024/01/02 00:27:15;;;;;;;5.30;1.80;;;;;;;6.05;100.00;99919.56;5157563;27;20524;-77
2024/01/02 00:29:42;;;;;;;7.15;2.10;;;;;;;6.06;100.00;99921.03;5154747;27;20047;-77
2024/01/02 00:32:08;;;;;;;9.50;2.00;;;;;;;6.05;100.00;99917.66;5156825;27;20108;-77
2024/01/02 00:34:35;;;;;;;11.48;2.53;;;;;;;6.05;100.00;99891.22;5137837;27;20051;-77
2024/01/02 00:37:02;;;;;;;7.53;1.92;;;;;;;6.06;100.00;99876.13;5156695;27;20066;-76
2024/01/02 00:39:29;;;;;;;10.48;2.47;;;;;;;6.06;100.00;99884.78;5137540;27;20428;-76
2024/01/02 00:41:55;;;;;;;9.95;2.40;;;;;;;6.06;100.00;99863.66;5155832;27;20043;-77
2024/01/02 00:44:22;;;;;;;11.35;2.25;;;;;;;6.07;100.00;99848.53;5156869;27;20096;-77
2024/01/02 00:46:49;;;;;;;6.45;1.95;;;;;;;6.08;100.00;99837.53;5156657;27;20063;-76
2024/01/02 00:49:15;;;;;;;4.32;2.00;;;;;;;6.08;100.00;99829.59;5155847;27;20035;-76
2024/01/02 00:51:42;;;;;;;8.27;2.05;;;;;;;6.09;100.00;99831.09;5155565;27;20043;-77
2024/01/02 00:54:09;;;;;;;6.63;2.28;;;;;;;6.10;100.00;99829.19;5155450;27;20134;-76
2024/01/02 00:56:35;;;;;;;9.73;2.22;;;;;;;6.11;100.00;99817.44;5136964;27;20525;-76
2024/01/02 00:59:02;;;;;;;5.50;1.45;;;;;;;6.11;100.00;99810.25;5134040;27;20054;-77
2024/01/02 01:01:28;;;;;;;7.75;1.80;;;;;;;6.11;100.00;99799.69;5150923;27;20047;-76
2024/01/02 01:03:55;;;;;;;10.35;1.88;;;;;;;6.12;100.00;99782.66;5156007;27;20039;-76
2024/01/02 01:06:22;;;;;;;5.40;2.17;;;;;;;6.13;100.00;99770.19;5119407;27;20055;-76
2024/01/02 01:08:48;;;;;;;2.80;1.40;;;;;;;6.14;100.00;99766.38;5156176;27;20039;-76
2024/01/02 01:11:15;;;;;;;6.72;1.80;;;;;;;6.16;100.00;99754.22;5137764;27;20070;-77
2024/01/02 01:13:41;;;;;;;7.07;1.92;;;;;;;6.15;100.00;99752.72;5155839;27;20042;-76
2024/01/02 01:16:08;;;;;;;6.90;1.92;;;;;;;6.17;100.00;99744.38;5156001;27;20044;-76
2024/01/02 01:18:34;;;;;;;7.85;1.77;;;;;;;6.18;100.00;99732.63;5154882;27;20054;-76
2024/01/02 01:21:02;;;;;;;2.20;1.52;;;;;;;6.19;100.00;99705.78;5153077;27;20415;-77
2024/01/02 01:23:29;;;;;;;2.00;1.10;;;;;;;6.19;100.00;99689.19;5155139;27;20047;-77
2024/01/02 01:25:56;;;;;;;6.95;1.48;;;;;;;6.21;100.00;99678.91;5156414;27;20131;-76
2024/01/02 01:28:22;;;;;;;7.35;1.80;;;;;;;6.20;100.00;99669.50;5136840;27;20520;-76
2024/01/02 01:30:49;;;;;;;5.15;1.77;;;;;;;6.19;100.00;99668.78;5136638;27;20054;-76
2024/01/02 01:33:16;;;;;;;1.25;1.13;;;;;;;6.21;100.00;99647.19;5135749;27;20131;-76
2024/01/02 01:35:43;;;;;;;4.28;1.15;;;;;;;6.21;100.00;99634.72;5156180;27;20796;-76
2024/01/02 01:38:09;;;;;;;2.97;1.25;;;;;;;6.21;100.00;99634.72;5155546;27;20054;-76
2024/01/02 01:40:36;;;;;;;2.97;1.27;;;;;;;6.23;100.00;99610.50;5155613;27;20092;-76
2024/01/02 01:43:11;;;;;;;3.88;1.35;;;;;;;6.23;100.00;99605.94;5150977;27;20044;-76
2024/01/02 01:45:39;;;;;;;2.28;0.90;;;;;;;6.24;100.00;99588.94;5133774;27;20052;-76
2024/01/02 01:48:08;;;;;;;3.22;1.00;;;;;;;6.26;100.00;99586.59;5156273;27;20075;-77
2024/01/02 01:50:39;;;;;;;4.47;1.30;;;;;;;6.24;100.00;99581.00;5132916;27;20054;-77
2024/01/02 01:53:07;;;;;;;5.00;1.33;;;;;;;6.25;100.00;99571.91;5132542;27;20052;-86
2024/01/02 01:55:34;;;;;;;8.52;1.17;;;;;;;6.26;100.00;99556.78;5149705;27;20050;-86
2024/01/02 01:58:02;;;;;;;5.40;1.40;;;;;;;6.27;100.00;99560.88;5153869;27;20050;-87
2024/01/02 02:00:29;;;;;;;2.03;1.10;;;;;;;6.28;100.00;99538.56;5135870;27;20043;-87
2024/01/02 02:02:59;;;;;;;4.07;0.85;;;;;;;6.28;100.00;99534.03;5136240;27;20505;-86
2024/01/02 02:05:26;;;;;;;2.70;1.00;;;;;;;6.29;100.00;99524.91;5136974;27;20052;-86
2024/01/02 02:07:55;;;;;;;2.80;1.00;;;;;;;6.31;100.00;99512.00;5137030;27;20108;-86
2024/01/02 02:10:22;;;;;;;1.02;0.70;;;;;;;6.31;100.00;99505.97;5136327;27;20051;-86
2024/01/02 02:12:49;;;;;;;2.47;1.00;;;;;;;6.32;100.00;99504.81;5153335;27;20042;-86
2024/01/02 02:15:16;;;;;;;4.00;1.10;;;;;;;6.34;100.00;99505.09;5119138;27;20124;-85
2024/01/02 02:17:44;;;;;;;1.50;0.80;;;;;;;6.34;100.00;99483.97;5136293;27;20055;-85
2024/01/02 02:20:11;;;;;;;1.55;0.90;;;;;;;6.34;100.00;99478.69;5118660;27;20429;-85
2024/01/02 02:22:51;;;;;;;1.65;1.05;;;;;;;6.36;100.00;99471.03;5136573;27;20059;-85
2024/01/02 02:25:18;;;;;;;2.13;0.80;;;;;;;6.37;100.00;99474.41;5136551;27;20052;-85
2024/01/02 02:27:46;;;;;;;3.38;0.90;;;;;;;6.36;100.00;99468.41;5153736;27;20043;-86
2024/01/02 02:30:13;;;;;;;2.28;0.65;;;;;;;6.37;100.00;99443.44;5154754;27;20043;-86
2024/01/02 02:32:40;;;;;;;2.15;0.80;;;;;;;6.37;100.00;99454.00;5136009;27;20542;-85
2024/01/02 02:35:08;;;;;;;2.45;0.80;;;;;;;6.38;100.00;99458.13;5135710;27;20047;-85
2024/01/02 02:37:35;;;;;;;1.60;0.70;;;;;;;6.38;100.00;99458.13;5154482;27;20126;-86
2024/01/02 02:40:03;;;;;;;1.50;1.00;;;;;;;6.39;100.00;99448.28;5135843;27;20800;-86
2024/01/02 02:42:30;;;;;;;2.58;0.90;;;;;;;6.40;100.00;99433.88;5154301;27;20047;-86
2024/01/02 02:44:57;;;;;;;1.27;0.98;;;;;;;6.39;100.00;99398.06;5136334;27;20047;-86
2024/01/02 02:47:25;;;;;;;6.55;0.80;;;;;;;6.39;100.00;99417.28;5117691;27;20063;-86
2024/01/02 02:49:52;;;;;;;1.83;0.70;;;;;;;6.40;100.00;99392.28;5135679;27;20052;-85
2024/01/02 02:52:19;;;;;;;2.28;0.80;;;;;;;6.42;100.00;99389.22;5154663;27;20073;-85
2024/01/02 02:54:46;;;;;;;2.33;0.75;;;;;;;6.42;100.00;99366.16;5158192;27;20047;-85
2024/01/02 02:57:13;;;;;;;3.80;0.70;;;;;;;6.44;100.00;99357.78;5139887;27;20072;-85
2024/01/02 02:59:40;;;;;;;0.43;0.43;;;;;;;6.45;100.00;99359.25;5138655;27;20047;-85
2024/01/02 03:02:07;;;;;;;2.58;0.70;;;;;;;6.45;100.00;99354.69;5140741;27;20046;-85
2024/01/02 03:04:34;;;;;;;0.43;0.40;;;;;;;6.47;100.00;99333.09;5138963;27;20514;-85
2024/01/02 03:07:00;;;;;;;1.67;0.50;;;;;;;6.46;100.00;99316.50;5138919;27;20811;-85
2024/01/02 03:09:27;;;;;;;3.97;0.63;;;;;;;6.48;100.00;99290.38;5136823;27;20048;-85
2024/01/02 03:11:54;;;;;;;2.22;0.35;;;;;;;6.51;100.00;99294.03;5158182;27;20039;-86
2024/01/02 03:14:20;;;;;;;3.10;0.57;;;;;;;6.52;100.00;99298.88;5157092;27;20108;-86
2024/01/02 03:16:47;;;;;;;3.60;0.40;;;;;;;6.54;100.00;99279.91;5157067;27;20868;-86
2024/01/02 03:19:13;;;;;;;0.35;0.35;;;;;;;6.55;100.00;99286.69;5157410;27;20047;-85
2024/01/02 03:21:40;;;;;;;0.60;0.50;;;;;;;6.55;100.00;99266.25;5139143;27;20601;-86
2024/01/02 03:24:07;;;;;;;2.05;0.60;;;;;;;6.54;100.00;99245.53;5155996;27;20130;-86
2024/01/02 03:26:34;;;;;;;0.43;0.40;;;;;;;6.53;100.00;99236.88;5156803;27;20074;-85
2024/01/02 03:29:00;;;;;;;0.60;0.40;;;;;;;6.53;100.00;99215.72;5158363;27;20043;-85
2024/01/02 03:31:27;;;;;;;0.68;0.40;;;;;;;6.55;100.00;99212.66;5121892;27;20047;-85
2024/01/02 03:33:54;;;;;;;0.55;0.40;;;;;;;6.55;100.00;99202.06;5158289;27;20510;-85
2024/01/02 03:36:21;;;;;;;0.35;0.35;;;;;;;6.56;100.00;99192.97;5139333;27;20496;-84
2024/01/02 03:38:49;;;;;;;1.42;0.40;;;;;;;6.56;100.00;99182.38;5159022;27;20544;-85
2024/01/02 03:41:16;;;;;;;0.60;0.60;;;;;;;6.56;100.00;99167.25;5154924;27;20040;-84
2024/01/02 03:43:43;;;;;;;0.75;0.50;;;;;;;6.56;100.00;99158.59;5156835;27;20566;-85
2024/01/02 03:46:11;;;;;;;0.50;0.28;;;;;;;6.57;100.00;99157.41;5157229;27;20504;-85
2024/01/02 03:48:38;;;;;;;0.95;0.30;;;;;;;6.59;100.00;99168.25;5155865;27;20074;-84
2024/01/02 03:51:05;;;;;;;0.30;0.30;;;;;;;6.60;100.00;99167.09;5139578;27;20069;-84
2024/01/02 03:53:32;;;;;;;0.40;0.40;;;;;;;6.62;100.00;99162.09;5157336;27;20078;-84
2024/01/02 03:55:59;;;;;;;0.73;0.30;;;;;;;6.62;100.00;99167.38;5158448;27;20043;-84
2024/01/02 03:58:27;;;;;;;0.40;0.40;;;;;;;6.61;100.00;99164.00;5157005;27;20067;-84
2024/01/02 04:00:54;;;;;;;0.20;0.20;;;;;;;6.64;100.00;99155.16;5157397;27;20044;-84
2024/01/02 04:03:21;;;;;;;0.30;0.30;;;;;;;6.64;100.00;99141.94;5139053;27;20051;-84
2024/01/02 04:05:47;;;;;;;1.85;0.50;;;;;;;6.66;100.00;99144.88;5156801;27;20089;-84
2024/01/02 04:08:14;;;;;;;0.32;0.32;;;;;;;6.68;100.00;99136.47;5158421;27;20088;-84
2024/01/02 04:10:42;;;;;;;0.25;0.20;;;;;;;6.69;100.00;99153.81;5124548;27;20055;-84
2024/01/02 04:13:12;;;;;;;0.30;0.30;;;;;;;6.72;100.00;99128.38;5157702;27;20043;-84
2024/01/02 04:15:39;;;;;;;0.30;0.30;;;;;;;6.74;100.00;99124.09;5157124;27;20035;-84
2024/01/02 04:18:06;;;;;;;0.20;0.20;;;;;;;6.76;100.00;99118.38;5138944;27;20051;-84
2024/01/02 04:20:34;;;;;;;0.65;0.60;;;;;;;6.78;100.00;99122.03;5120229;27;20047;-84
2024/01/02 04:23:01;;;;;;;0.30;0.30;;;;;;;6.80;100.00;99109.06;5157743;27;20048;-84
2024/01/02 04:25:27;;;;;;;0.20;0.20;;;;;;;6.83;100.00;99110.06;5157719;27;20495;-83
2024/01/02 04:27:55;;;;;;;0.20;0.20;;;;;;;6.83;100.00;99100.22;5138338;27;20051;-83
2024/01/02 04:30:23;;;;;;;0.30;0.30;;;;;;;6.84;100.00;99096.38;5157388;27;20039;-84
2024/01/02 04:32:49;;;;;;;0.25;0.25;;;;;;;6.87;100.00;99074.31;5157030;27;20765;-84
2024/01/02 04:35:16;;;;;;;0.30;0.30;;;;;;;6.90;100.00;99070.78;5155937;27;20043;-83
2024/01/02 04:37:43;;;;;;;0.30;0.30;;;;;;;6.95;100.00;99078.09;5156684;27;20047;-84
2024/01/02 04:40:11;;;;;;;0.20;0.20;;;;;;;6.99;100.00;99083.19;5156494;27;20043;-84
2024/01/02 04:42:38;;;;;;;0.30;0.30;;;;;;;7.01;100.00;99081.56;5156422;27;20521;-84
2024/01/02 04:45:06;;;;;;;0.20;0.20;;;;;;;7.02;100.00;99088.31;5158370;27;20043;-84
2024/01/02 04:47:32;;;;;;;0.30;0.30;;;;;;;7.04;100.00;99087.88;5155574;27;20051;-84
2024/01/02 04:50:00;;;;;;;0.40;0.40;;;;;;;7.06;100.00;99076.81;5157731;27;20043;-84
2024/01/02 04:52:26;;;;;;;0.30;0.30;;;;;;;7.07;100.00;99079.00;5157604;27;20122;-83
2024/01/02 04:54:53;;;;;;;0.40;0.40;;;;;;;7.11;100.00;99084.13;5157451;27;20046;-83
2024/01/02 04:57:20;;;;;;;0.20;0.20;;;;;;;7.12;100.00;99070.44;5157828;27;20058;-83
2024/01/02 04:59:48;;;;;;;0.38;0.38;;;;;;;7.16;100.00;99071.00;5157566;27;20035;-84
2024/01/02 05:02:15;;;;;;;0.40;0.40;;;;;;;7.20;100.00;99062.84;5157098;27;20043;-84
2024/01/02 05:04:42;;;;;;;0.30;0.30;;;;;;;7.24;100.00;99063.41;5158852;27;20126;-84
2024/01/02 05:07:08;;;;;;;0.32;0.32;;;;;;;7.27;100.00;99075.72;5157157;27;20092;-84
2024/01/02 05:09:35;;;;;;;0.30;0.22;;;;;;;7.31;100.00;99063.03;5138434;27;20051;-84
2024/01/02 05:12:02;;;;;;;0.40;0.40;;;;;;;7.34;100.00;99051.53;5157286;27;20463;-83
2024/01/02 05:14:29;;;;;;;0.30;0.30;;;;;;;7.38;100.00;99057.38;5154707;27;20084;-84
2024/01/02 05:16:56;;;;;;;2.53;0.30;;;;;;;7.41;100.00;99061.03;5136048;27;20038;-83
2024/01/02 05:19:23;;;;;;;0.43;0.43;;;;;;;7.46;100.00;99063.78;5163000;27;20048;-84
2024/01/02 05:21:51;;;;;;;0.40;0.40;;;;;;;7.52;100.00;99054.00;5156389;27;20043;-84
2024/01/02 05:24:18;;;;;;;0.32;0.32;;;;;;;7.57;100.00;99055.28;5173901;27;20047;-84
2024/01/02 05:26:44;;;;;;;0.30;0.30;;;;;;;7.62;100.00;99049.31;5165821;27;20047;-84
2024/01/02 05:29:11;;;;;;;0.20;0.20;;;;;;;7.67;100.00;99046.03;5145117;27;20051;-83
2024/01/02 05:31:38;;;;;;;0.40;0.40;;;;;;;7.71;100.00;99051.88;5158775;27;20044;-85
2024/01/02 05:34:04;;;;;;;0.30;0.30;;;;;;;7.76;100.00;99053.88;5157333;27;20047;-85
2024/01/02 05:36:31;;;;;;;0.47;0.47;;;;;;;7.81;100.00;99065.72;5155896;27;20815;-86
2024/01/02 05:38:58;;;;;;;1.05;0.65;;;;;;;7.86;100.00;99060.50;5154989;27;20498;-86
2024/01/02 05:41:24;;;;;;;0.60;0.60;;;;;;;7.90;100.00;99063.72;5136401;27;20047;-86
2024/01/02 05:43:51;;;;;;;0.85;0.85;;;;;;;7.97;100.00;99065.25;5137945;27;20822;-86
2024/01/02 05:46:18;;;;;;;0.73;0.73;;;;;;;8.01;100.00;99066.50;5154599;27;20043;-85
2024/01/02 05:48:45;;;;;;;0.75;0.75;;;;;;;8.11;100.00;99066.38;5156860;27;20043;-85
2024/01/02 05:51:11;;;;;;;0.93;0.93;;;;;;;8.14;100.00;99074.13;5159477;27;20540;-85
2024/01/02 05:53:38;;;;;;;1.23;1.05;;;;;;;8.17;100.00;99064.53;5143421;27;20096;-85
2024/01/02 05:56:05;;;;;;;1.05;1.05;;;;;;;8.25;100.00;99061.03;5160314;27;20055;-85
2024/01/02 05:58:32;;;;;;;1.10;1.10;;;;;;;8.29;100.00;99055.53;5162549;27;20108;-85
2024/01/02 06:00:59;;;;;;;1.02;1.02;;;;;;;8.37;100.00;99063.84;5137124;27;20047;-86
2024/01/02 06:03:26;;;;;;;1.00;1.00;;;;;;;8.45;100.00;99065.63;5154859;27;20068;-85
2024/01/02 06:05:53;;;;;;;1.23;1.13;;;;;;;8.49;100.00;99068.06;5136955;27;20047;-85
2024/01/02 06:08:21;;;;;;;0.70;0.70;;;;;;;8.56;100.00;99063.09;5153169;27;20130;-85
2024/01/02 06:10:48;;;;;;;0.98;0.98;;;;;;;8.64;100.00;99084.66;5155265;27;20047;-85
2024/01/02 06:13:15;;;;;;;0.80;0.80;;;;;;;8.67;100.00;99081.06;5136458;27;20047;-85
2024/01/02 06:15:42;;;;;;;1.02;1.00;;;;;;;8.71;100.00;99075.56;5155584;27;20066;-85
2024/01/02 06:18:08;;;;;;;2.17;1.00;;;;;;;8.77;100.00;99077.09;5154358;27;20058;-85
2024/01/02 06:20:36;;;;;;;1.00;1.00;;;;;;;8.84;100.00;99076.66;5129292;27;20534;-85
2024/01/02 06:23:03;;;;;;;1.00;1.00;;;;;;;8.87;100.00;99083.69;5154475;27;20100;-85
2024/01/02 06:25:30;;;;;;;2.35;1.40;;;;;;;8.90;100.00;99090.00;5111824;27;20158;-86
2024/01/02 06:27:56;;;;;;;3.45;2.08;;;;;;;8.95;100.00;99090.06;5152948;27;20047;-86
2024/01/02 06:30:23;;;;;;;5.35;1.95;;;;;;;8.97;100.00;99108.16;5150617;27;20074;-86
2024/01/02 06:32:50;;;;;;;4.45;1.90;;;;;;;8.99;100.00;99103.13;5153506;27;20501;-86
2024/01/02 06:35:17;;;;;;;6.47;2.20;;;;;;;9.03;100.00;99111.59;5154765;27;20071;-86
2024/01/02 06:37:44;;;;;;;6.45;2.42;;;;;;;9.06;100.00;99115.25;5153127;27;20051;-84
2024/01/02 06:40:14;;;;;;;6.68;2.30;;;;;;;9.07;100.00;99119.38;5136386;27;20051;-90
2024/01/02 06:42:41;;;;;;;5.18;2.45;;;;;;;9.09;100.00;99119.63;5149442;27;21202;-89
2024/01/02 06:45:08;;;;;;;6.45;2.30;;;;;;;9.12;100.00;99129.31;5155977;27;20063;-89
2024/01/02 06:47:35;;;;;;;11.10;3.90;;;;;;;9.19;100.00;99134.94;5154517;27;20039;-84
2024/01/02 06:50:05;;;;;;;6.32;2.40;;;;;;;9.19;100.00;99129.63;5155726;27;20510;-88
2024/01/02 06:52:32;;;;;;;8.88;2.22;;;;;;;9.23;100.00;99132.06;5152509;27;20043;-88
2024/01/02 06:54:59;;;;;;;12.30;2.47;;;;;;;9.28;100.00;99132.13;5153806;27;20100;-86
2024/01/02 06:57:25;;;;;;;13.23;3.42;;;;;;;9.31;100.00;99131.19;5136015;27;20122;-86
2024/01/02 06:59:52;;;;;;;7.80;2.25;;;;;;;9.31;100.00;99138.41;5155116;27;20050;-86
2024/01/02 07:02:19;;;;;;;6.95;2.00;;;;;;;9.31;100.00;99144.47;5136323;27;20146;-85
2024/01/02 07:04:46;;;;;;;12.77;2.53;;;;;;;9.32;100.00;99150.50;5156315;27;20039;-86
2024/01/02 07:07:13;;;;;;;15.45;2.13;;;;;;;9.37;100.00;99157.78;5154543;27;20122;-87
2024/01/02 07:09:39;;;;;;;12.70;2.13;;;;;;;9.41;100.00;99157.59;5136496;27;20484;-87
2024/01/02 07:12:07;;;;;;;12.15;2.40;;;;;;;9.43;100.00;99158.56;5154668;27;20039;-87
2024/01/02 07:14:33;;;;;;;11.25;2.00;;;;;;;9.44;100.00;99162.69;5153596;27;20054;-87
2024/01/02 07:17:00;;;;;;;10.70;2.25;;;;;;;9.45;100.00;99174.78;5153969;27;20051;-85
2024/01/02 07:19:27;;;;;;;15.10;2.15;;;;;;;9.47;100.00;99166.34;5157186;27;20086;-84
2024/01/02 07:21:54;;;;;;;17.13;2.42;;;;;;;9.48;100.00;99170.47;5156584;27;20118;-85
2024/01/02 07:24:22;;;;;;;10.98;2.60;;;;;;;9.49;100.00;99182.53;5119250;27;20107;-87
2024/01/02 07:26:49;;;;;;;28.75;2.95;;;;;;;9.49;100.00;99191.25;5155368;27;20112;-87
2024/01/02 07:29:18;;;;;;;17.42;2.97;;;;;;;9.51;100.00;99190.78;5156847;27;20044;-86
2024/01/02 07:31:45;;;;;;;22.48;3.05;;;;;;;9.51;100.00;99196.81;5155080;27;20131;-86
2024/01/02 07:34:13;;;;;;;16.30;2.95;;;;;;;9.53;100.00;99205.03;5153039;27;20054;-86
2024/01/02 07:36:39;;;;;;;21.75;2.78;;;;;;;9.54;100.00;99213.75;5153377;27;20047;-86
2024/01/02 07:39:06;;;;;;;20.55;3.40;;;;;;;9.55;100.00;99215.19;5156008;27;20078;-83
2024/01/02 07:41:33;;;;;;;26.63;2.88;;;;;;;9.55;100.00;99221.25;5158195;27;20035;-84
2024/01/02 07:44:00;;;;;;;11.32;2.35;;;;;;;9.57;100.00;99220.78;5140717;27;20509;-83
2024/01/02 07:46:27;;;;;;;24.42;2.75;;;;;;;9.60;100.00;99227.78;5138963;27;20132;-85
2024/01/02 07:48:54;;;;;;;20.75;3.22;;;;;;;9.61;100.00;99239.88;5157867;27;20043;-84
2024/01/02 07:51:21;;;;;;;21.90;2.83;;;;;;;9.59;100.00;99235.06;5139473;27;20047;-85
2024/01/02 07:53:47;;;;;;;17.17;2.47;;;;;;;9.59;100.00;99240.38;5158642;27;20043;-82
2024/01/02 07:56:18;;;;;;;25.48;4.07;;;;;;;9.57;100.00;99234.06;5158150;27;20039;-86
2024/01/02 07:58:47;;;;;;;16.70;2.70;;;;;;;9.55;100.00;99242.50;5155169;27;20086;-86
2024/01/02 08:01:16;;;;;;;23.80;4.05;;;;;;;9.55;100.00;99242.50;5156268;27;20085;-85
2024/01/02 08:03:44;;;;;;;16.42;2.95;;;;;;;9.55;100.00;99239.84;5157981;27;20075;-85
2024/01/02 08:08:58;;;;;;;27.63;3.70;;;;;;;9.58;100.00;99238.19;5154894;27;20050;-86
2024/01/02 08:11:25;;;;;;;27.25;3.38;;;;;;;9.59;100.00;99242.28;5156484;27;20043;-86
2024/01/02 08:13:52;;;;;;;27.77;3.67;;;;;;;9.59;100.00;99242.28;5156118;27;20100;-86
2024/01/02 08:16:20;;;;;;;23.13;2.95;;;;;;;9.60;100.00;99247.13;5152949;27;20131;-85
2024/01/02 08:18:46;;;;;;;18.90;3.15;;;;;;;9.61;100.00;99235.28;5156926;27;20059;-85
2024/01/02 08:21:14;;;;;;;22.55;3.42;;;;;;;9.61;100.00;99240.59;5139171;27;20054;-84
2024/01/02 08:23:40;;;;;;;23.85;3.45;;;;;;;9.61;100.00;99240.59;5154639;27;20066;-86
2024/01/02 08:26:12;;;;;;;20.50;3.28;;;;;;;9.61;100.00;99229.97;5134483;27;20043;-83
2024/01/02 08:28:40;;;;;;;19.98;3.03;;;;;;;9.62;100.00;99234.09;5137649;27;20071;-84
2024/01/02 08:31:07;;;;;;;19.45;3.13;;;;;;;9.63;100.00;99227.59;5158096;27;20054;-86
2024/01/02 08:33:34;;;;;;;24.55;3.05;;;;;;;9.63;100.00;99230.25;5138097;27;20043;-85
2024/01/02 08:36:02;;;;;;;12.55;2.92;;;;;;;9.61;100.00;99227.31;5155159;27;20047;-84
2024/01/02 08:38:29;;;;;;;28.48;3.25;;;;;;;9.63;100.00;99229.50;5157072;27;20047;-85
2024/01/02 08:40:55;;;;;;;15.70;3.25;;;;;;;9.63;100.00;99232.91;5157136;27;20096;-84
2024/01/02 08:43:22;;;;;;;18.83;3.58;;;;;;;9.63;100.00;99219.59;5156261;27;20047;-82
2024/01/02 08:45:48;;;;;;;24.63;3.30;;;;;;;9.64;100.00;99236.28;5157065;27;20039;-80
2024/01/02 08:48:15;;;;;;;19.30;3.08;;;;;;;9.63;100.00;99235.56;5157473;27;20067;-80
2024/01/02 08:50:42;;;;;;;31.85;3.78;;;;;;;9.65;100.00;99240.41;5155492;27;20822;-81
2024/01/02 08:53:11;;;;;;;24.45;3.67;;;;;;;9.64;100.00;99231.69;5157360;27;20044;-80
2024/01/02 08:55:38;;;;;;;26.38;3.60;;;;;;;9.65;100.00;99229.78;5155687;27;20047;-81
2024/01/02 08:58:05;;;;;;;23.15;3.45;;;;;;;9.65;100.00;99225.19;5157794;27;20140;-80
2024/01/02 09:00:33;;;;;;;23.90;3.42;;;;;;;9.67;100.00;99225.44;5155787;27;20828;-80
2024/01/02 09:03:03;;;;;;;22.50;4.15;;;;;;;9.67;100.00;99217.47;5156502;27;20120;-81
2024/01/02 09:05:37;;;;;;;28.98;3.75;;;;;;;9.68;100.00;99223.53;5155500;27;20039;-80
2024/01/02 09:08:04;;;;;;;24.33;4.47;;;;;;;9.69;100.00;99220.41;5155833;27;20066;-86
2024/01/02 09:10:31;;;;;;;25.73;5.50;;;;;;;9.71;100.00;99214.63;5155154;27;20067;-81
2024/01/02 09:12:58;;;;;;;22.50;3.45;;;;;;;9.74;100.00;99202.31;5156435;27;20098;-86
2024/01/02 09:15:24;;;;;;;24.65;3.72;;;;;;;9.75;100.00;99211.75;5135925;27;20513;-83
2024/01/02 09:17:51;;;;;;;24.40;4.22;;;;;;;9.78;100.00;99221.44;5156966;27;20097;-84
2024/01/02 09:20:18;;;;;;;21.92;3.47;;;;;;;9.81;100.00;99223.88;5158389;27;20104;-84
2024/01/02 09:22:45;;;;;;;23.92;4.10;;;;;;;9.82;100.00;99217.38;5153683;27;20051;-86
2024/01/02 09:25:15;;;;;;;21.42;3.65;;;;;;;9.86;100.00;99211.84;5155054;27;20565;-87
2024/01/02 09:27:43;;;;;;;27.55;4.03;;;;;;;9.88;100.00;99209.44;5157878;27;20050;-83
2024/01/02 09:30:14;;;;;;;17.30;4.05;;;;;;;9.90;100.00;99220.34;5158913;27;21059;-83
2024/01/02 09:32:41;;;;;;;20.37;4.20;;;;;;;9.89;100.00;99224.22;5159342;27;20512;-83
2024/01/02 09:35:08;;;;;;;25.10;4.18;;;;;;;9.90;100.00;99221.06;5155999;27;20082;-83
2024/01/02 09:37:34;;;;;;;21.08;3.28;;;;;;;9.93;100.00;99216.75;5133555;27;20067;-82
2024/01/02 09:40:03;;;;;;;35.08;4.13;;;;;;;9.94;100.00;99223.53;5156141;27;20101;-85
2024/01/02 09:42:50;;;;;;;22.42;3.92;;;;;;;9.97;100.00;99227.91;5137192;27;20048;-85
2024/01/02 09:45:47;;;;;;;23.50;4.18;;;;;;;10.01;100.00;99228.41;5134280;27;20043;-83
2024/01/02 09:48:35;;;;;;;21.05;4.22;;;;;;;10.04;100.00;99230.84;5151416;27;20059;-85
2024/01/02 09:51:13;;;;;;;35.85;4.55;;;;;;;10.08;100.00;99227.97;5132558;27;20514;-81
2024/01/02 09:53:59;;;;;;;25.00;4.65;;;;;;;10.13;100.00;99223.91;5152881;27;20050;-82
2024/01/02 09:56:38;;;;;;;;;;;;;;;10.19;100.00;99230.00;5155785;27;20032;-82
2024/01/02 09:59:26;;;;;;;27.25;4.40;;;;;;;10.22;100.00;99224.50;5151859;27;19927;-81
2024/01/02 10:02:17;;;;;;;33.92;4.07;;;;;;;10.26;100.00;99232.25;5156200;27;20096;-81
2024/01/02 10:05:11;;;;;;;24.10;3.80;;;;;;;10.29;100.00;99231.31;5153625;27;20840;-82
2024/01/02 10:08:12;;;;;;;23.83;4.43;;;;;;;10.31;100.00;99226.97;5154681;27;20039;-82
2024/01/02 10:10:54;;;;;;;17.08;3.25;;;;;;;10.34;100.00;99219.97;5151823;27;20055;-81
2024/01/02 10:13:25;;;;;;;24.25;4.20;;;;;;;10.35;100.00;99218.78;5154803;27;20074;-81
2024/01/02 10:15:59;;;;;;;25.85;4.32;;;;;;;10.39;100.00;99208.66;5152374;27;20039;-81
2024/01/02 10:18:51;;;;;;;20.83;4.78;;;;;;;10.42;100.00;99207.69;5152856;27;20055;-83
2024/01/02 10:21:18;;;;;;;;;;;;;;;10.47;100.00;99208.91;5134082;27;20055;-82
2024/01/02 10:24:05;;;;;;;20.88;4.32;;;;;;;10.50;100.00;99207.97;5155029;27;19923;-80
2024/01/02 10:26:38;;;;;;;25.92;4.80;;;;;;;10.52;100.00;99208.94;5154431;27;20043;-81
2024/01/02 10:29:12;;;;;;;16.38;3.90;;;;;;;10.52;100.00;99198.31;5155286;27;20046;-84
2024/01/02 10:31:48;;;;;;;19.35;3.80;;;;;;;10.53;100.00;99194.44;5154580;27;20057;-84
2024/01/02 10:34:40;;;;;;;12.93;3.28;;;;;;;10.54;100.00;99192.50;5154291;27;20063;-84
2024/01/02 10:37:11;;;;;;;17.35;4.22;;;;;;;10.56;100.00;99190.09;5135923;27;20062;-85
2024/01/02 10:39:43;;;;;;;15.02;3.78;;;;;;;10.57;100.00;99191.56;5154182;27;20043;-86
2024/01/02 10:42:13;;;;;;;12.02;4.32;;;;;;;10.58;100.00;99185.03;5137097;27;20135;-84
2024/01/02 10:44:52;;;;;;;15.57;4.00;;;;;;;10.60;100.00;99166.66;5156348;27;20118;-81
2024/01/02 10:47:53;;;;;;;15.10;3.85;;;;;;;10.62;100.00;99172.25;5150516;27;20039;-80
2024/01/02 10:50:30;;;;;;;16.58;3.78;;;;;;;10.65;100.00;99165.97;5134430;27;20160;-83
2024/01/02 10:53:03;;;;;;;11.00;3.35;;;;;;;10.67;100.00;99147.59;5155966;27;20043;-80
2024/01/02 10:55:46;;;;;;;13.27;3.22;;;;;;;10.69;100.00;99148.56;5156371;27;20048;-80
2024/01/02 10:58:23;;;;;;;10.05;3.40;;;;;;;10.72;100.00;99152.22;5155805;27;20056;-82
2024/01/02 11:01:04;;;;;;;12.68;3.20;;;;;;;10.75;100.00;99145.22;5158626;27;20127;-82
2024/01/02 11:03:40;;;;;;;16.02;3.55;;;;;;;10.75;100.00;99140.63;5160697;27;21034;-84
2024/01/02 11:06:22;;;;;;;9.23;2.58;;;;;;;10.77;100.00;99132.88;5159150;27;20043;-82
2024/01/02 11:09:08;;;;;;;11.98;3.20;;;;;;;10.75;100.00;99127.31;5153358;27;20047;-82
2024/01/02 11:11:37;;;;;;;9.93;2.80;;;;;;;10.74;100.00;99125.13;5153380;27;20043;-83
2024/01/02 11:14:06;;;;;;;11.80;3.13;;;;;;;10.73;100.00;99121.72;5156360;27;20179;-83
2024/01/02 11:16:41;;;;;;;10.82;3.42;;;;;;;10.73;100.00;99115.69;5157915;27;20043;-83
2024/01/02 11:19:10;;;;;;;12.23;3.08;;;;;;;10.73;100.00;99110.34;5157526;27;20047;-84
2024/01/02 11:22:05;;;;;;;6.88;3.20;;;;;;;10.74;100.00;99117.13;5159095;27;20043;-84
2024/01/02 11:24:34;;;;;;;7.90;2.92;;;;;;;10.75;100.00;99105.28;5158072;27;20043;-84
2024/01/02 11:27:04;;;;;;;8.60;3.38;;;;;;;10.72;100.00;99103.59;5161784;27;20046;-84
2024/01/02 11:29:35;;;;;;;12.30;4.10;;;;;;;10.71;100.00;99092.22;5161009;27;20092;-84
2024/01/02 11:32:15;;;;;;;7.75;4.20;;;;;;;10.69;100.00;99087.38;5159887;27;20501;-83
2024/01/02 11:34:59;;;;;;;10.50;5.38;;;;;;;10.70;100.00;99085.44;5160477;27;20135;-79
2024/01/02 11:37:37;;;;;;;11.25;5.03;;;;;;;10.71;100.00;99078.16;5157361;27;20031;-80
2024/01/02 11:40:32;;;;;;;6.75;4.70;;;;;;;10.71;100.00;99072.84;5158737;27;20461;-80